createdAt,value
2023-10-20T00:00:02.043Z,14.86
2023-10-20T00:05:01.637Z,14.88
2023-10-20T00:10:01.941Z,14.94
2023-10-20T00:15:02.114Z,14.94
2023-10-20T00:20:02.260Z,14.94
2023-10-20T00:25:01.331Z,15.01
2023-10-20T00:30:01.844Z,15.01
2023-10-20T00:35:01.938Z,15.01
2023-10-20T00:40:02.008Z,15.07
2023-10-20T00:45:01.310Z,15.03
2023-10-20T00:50:01.840Z,15.07
2023-10-20T00:55:02.168Z,15.03
2023-10-20T01:00:02.103Z,15.08
2023-10-20T01:05:02.236Z,15.17
2023-10-20T01:10:02.205Z,15.22
2023-10-20T01:15:01.463Z,15.25
2023-10-20T01:20:02.014Z,15.25
2023-10-20T01:25:02.208Z,15.25
2023-10-20T01:30:01.312Z,15.21
2023-10-20T01:35:01.724Z,15.19
2023-10-20T01:40:01.997Z,15.23
2023-10-20T01:45:02.082Z,15.24
2023-10-20T01:50:01.316Z,15.15
2023-10-20T01:55:01.949Z,15.15
2023-10-20T02:00:02.012Z,15.15
2023-10-20T02:05:02.091Z,15.15
2023-10-20T02:10:01.329Z,15.12
2023-10-20T02:15:01.452Z,15.14
2023-10-20T02:20:01.765Z,15.11
2023-10-20T02:25:02.148Z,15.11
2023-10-20T02:30:02.328Z,15.07
2023-10-20T02:35:02.273Z,15.1
2023-10-20T02:40:02.305Z,15.1
2023-10-20T02:45:01.783Z,15.09
2023-10-20T02:50:02.045Z,15.07
2023-10-20T02:55:01.942Z,15.03
2023-10-20T03:00:01.737Z,15.02
2023-10-20T03:05:02.052Z,14.99
2023-10-20T03:10:01.943Z,14.96
2023-10-20T03:15:01.993Z,14.94
2023-10-20T03:20:02.210Z,14.94
2023-10-20T03:25:01.830Z,14.92
2023-10-20T03:30:01.748Z,14.88
2023-10-20T03:35:02.018Z,14.91
2023-10-20T03:40:01.691Z,14.83
2023-10-20T03:45:01.521Z,14.85
2023-10-20T03:50:02.024Z,14.85
2023-10-20T03:55:01.937Z,14.82
2023-10-20T04:00:02.251Z,14.78
2023-10-20T04:05:02.168Z,14.78
2023-10-20T04:10:02.281Z,14.75
2023-10-20T04:15:01.581Z,14.75
2023-10-20T04:20:01.979Z,14.71
2023-10-20T04:25:01.999Z,14.73
2023-10-20T04:30:02.057Z,14.68
2023-10-20T04:35:02.185Z,14.7
2023-10-20T04:40:01.497Z,14.7
2023-10-20T04:45:01.693Z,14.68
2023-10-20T04:50:02.042Z,14.72
2023-10-20T04:55:02.195Z,14.7
2023-10-20T05:00:01.435Z,14.67
2023-10-20T05:05:01.821Z,14.65
2023-10-20T05:10:02.153Z,14.68
2023-10-20T05:15:02.258Z,14.69
2023-10-20T05:20:01.745Z,14.59
2023-10-20T05:25:02.256Z,14.56
2023-10-20T05:30:01.473Z,14.57
2023-10-20T05:35:02.001Z,14.6
2023-10-20T05:40:01.612Z,14.63
2023-10-20T05:45:03.004Z,14.58
2023-10-20T05:50:02.232Z,14.58
2023-10-20T05:55:01.348Z,14.6
2023-10-20T06:00:02.100Z,14.58
2023-10-20T06:05:01.719Z,14.56
2023-10-20T06:10:02.005Z,14.53
2023-10-20T06:15:02.067Z,14.54
2023-10-20T06:20:01.383Z,14.57
2023-10-20T06:25:01.905Z,14.54
2023-10-20T06:30:02.238Z,14.53
2023-10-20T06:35:01.445Z,14.51
2023-10-20T06:40:01.784Z,14.55
2023-10-20T06:45:01.275Z,14.48
2023-10-20T06:50:01.983Z,14.49
2023-10-20T06:55:42.434Z,14.49
2023-10-20T07:00:01.964Z,14.48
2023-10-20T07:05:01.433Z,14.42
2023-10-20T07:10:01.423Z,14.41
2023-10-20T07:15:01.955Z,14.39
2023-10-20T07:20:01.368Z,14.38
2023-10-20T07:25:01.859Z,14.37
2023-10-20T07:30:02.201Z,14.33
2023-10-20T07:35:01.539Z,14.34
2023-10-20T07:40:01.921Z,14.34
2023-10-20T07:45:02.126Z,14.33
2023-10-20T07:50:01.325Z,14.28
2023-10-20T07:55:01.614Z,14.34
2023-10-20T08:00:01.940Z,14.33
2023-10-20T08:05:02.404Z,14.28
2023-10-20T08:10:01.667Z,14.33
2023-10-20T08:15:02.232Z,14.33
2023-10-20T08:20:01.398Z,14.3
2023-10-20T08:25:01.284Z,14.28
2023-10-20T08:30:01.913Z,14.3
2023-10-20T08:35:01.292Z,14.26
2023-10-20T08:40:01.732Z,14.32
2023-10-20T08:45:02.088Z,14.36
2023-10-20T08:50:01.528Z,14.34
2023-10-20T08:55:02.146Z,14.3
2023-10-20T09:00:01.443Z,14.3
2023-10-20T09:05:02.209Z,14.33
2023-10-20T09:10:01.327Z,14.35
2023-10-20T09:15:02.199Z,14.39
2023-10-20T09:20:01.567Z,14.39
2023-10-20T09:25:03.610Z,14.42
2023-10-20T09:30:02.248Z,14.38
2023-10-20T09:35:01.537Z,14.39
2023-10-20T09:40:01.929Z,14.37
2023-10-20T09:45:01.455Z,14.37
2023-10-20T09:50:02.019Z,14.41
2023-10-20T09:55:02.274Z,14.47
2023-10-20T10:00:01.360Z,14.48
2023-10-20T10:05:02.145Z,14.52
2023-10-20T10:10:01.622Z,14.54
2023-10-20T10:15:02.284Z,14.67
2023-10-20T10:20:03.212Z,14.71
2023-10-20T10:25:01.675Z,14.71
2023-10-20T10:30:03.005Z,14.72
2023-10-20T10:35:01.527Z,14.73
2023-10-20T10:40:01.820Z,14.73
2023-10-20T10:45:02.116Z,14.63
2023-10-20T10:50:01.419Z,14.63
2023-10-20T10:55:01.758Z,14.68
2023-10-20T11:00:02.648Z,14.65
2023-10-20T11:05:02.216Z,14.69
2023-10-20T11:10:01.466Z,14.82
2023-10-20T11:15:01.972Z,14.8
2023-10-20T11:20:02.137Z,14.84
2023-10-20T11:25:01.391Z,14.77
2023-10-20T11:30:01.934Z,14.73
2023-10-20T11:35:02.170Z,14.82
2023-10-20T11:40:01.530Z,14.89
2023-10-20T11:45:01.978Z,15
2023-10-20T11:50:02.222Z,14.98
2023-10-20T11:55:02.186Z,14.96
2023-10-20T12:00:02.238Z,15.01
2023-10-20T12:05:01.495Z,15.06
2023-10-20T12:10:02.028Z,15.11
2023-10-20T12:15:02.366Z,15.13
2023-10-20T12:20:01.536Z,15.1
2023-10-20T12:25:01.931Z,15.07
2023-10-20T12:30:02.299Z,15.15
2023-10-20T12:35:01.701Z,15.24
2023-10-20T12:40:02.190Z,15.22
2023-10-20T12:45:01.350Z,15.11
2023-10-20T12:50:01.762Z,15.15
2023-10-20T12:55:01.974Z,15.15
2023-10-20T13:00:02.187Z,15.16
2023-10-20T13:05:01.453Z,15.15
2023-10-20T13:10:01.554Z,15.15
2023-10-20T13:15:01.799Z,15.1
2023-10-20T13:20:02.131Z,15.15
2023-10-20T13:25:01.958Z,15.12
2023-10-20T13:30:01.633Z,15.18
2023-10-20T13:35:01.936Z,15.15
2023-10-20T13:40:02.160Z,15.22
2023-10-20T13:45:02.256Z,15.3
2023-10-20T13:50:01.563Z,15.45
2023-10-20T13:55:02.013Z,15.55
2023-10-20T14:00:02.338Z,15.62
2023-10-20T14:05:01.472Z,15.69
2023-10-20T14:10:02.038Z,15.7
2023-10-20T14:15:02.301Z,15.65
2023-10-20T14:20:01.707Z,15.51
2023-10-20T14:25:02.092Z,15.52
2023-10-20T14:30:01.568Z,15.41
2023-10-20T14:35:01.962Z,15.36
2023-10-20T14:40:02.088Z,15.28
2023-10-20T14:45:02.356Z,15.1
2023-10-20T14:50:01.531Z,14.92
2023-10-20T14:55:01.807Z,14.66
2023-10-20T15:00:02.102Z,14.68
2023-10-20T15:05:02.362Z,14.68
2023-10-20T15:10:02.200Z,14.68
2023-10-20T15:15:01.677Z,14.72
2023-10-20T15:20:01.520Z,14.73
2023-10-20T15:25:01.843Z,14.69
2023-10-20T15:30:02.180Z,14.68
2023-10-20T15:35:01.468Z,14.66
2023-10-20T15:40:17.591Z,14.65
2023-10-20T15:45:02.143Z,14.53
2023-10-20T15:50:01.486Z,14.53
2023-10-20T15:55:02.104Z,14.43
2023-10-20T16:00:01.452Z,14.41
2023-10-20T16:05:01.872Z,14.35
2023-10-20T16:10:02.264Z,14.2
2023-10-20T16:15:01.705Z,14.06
2023-10-20T16:20:01.640Z,13.93
2023-10-20T16:25:02.158Z,13.83
2023-10-20T16:30:01.556Z,13.75
2023-10-20T16:35:01.492Z,13.71
2023-10-20T16:40:02.188Z,13.66
2023-10-20T16:45:03.200Z,13.52
2023-10-20T16:50:01.911Z,13.43
2023-10-20T16:55:01.505Z,13.44
2023-10-20T17:00:02.057Z,13.44
2023-10-20T17:05:02.165Z,13.48
2023-10-20T17:10:01.467Z,13.48
2023-10-20T17:15:01.652Z,13.48
2023-10-20T17:20:02.103Z,13.49
2023-10-20T17:25:02.229Z,13.37
2023-10-20T17:30:02.337Z,13.32
2023-10-20T17:35:01.504Z,13.33
2023-10-20T17:40:01.590Z,13.38
2023-10-20T17:45:01.850Z,13.41
2023-10-20T17:50:02.131Z,13.4
2023-10-20T17:55:01.326Z,13.36
2023-10-20T18:00:02.059Z,13.44
2023-10-20T18:05:01.296Z,13.44
2023-10-20T18:10:01.747Z,13.44
2023-10-20T18:15:02.165Z,13.44
2023-10-20T18:20:01.308Z,13.27
2023-10-20T18:25:01.713Z,13.15
2023-10-20T18:30:02.105Z,13.05
2023-10-20T18:35:02.183Z,12.88
2023-10-20T18:40:01.310Z,12.79
2023-10-20T18:45:01.530Z,12.9
2023-10-20T18:50:01.928Z,12.88
2023-10-20T18:55:01.705Z,12.86
2023-10-20T19:00:01.992Z,12.86
2023-10-20T19:05:02.177Z,12.84
2023-10-20T19:10:01.423Z,12.88
2023-10-20T19:15:01.487Z,12.86
2023-10-20T19:20:01.805Z,12.92
2023-10-20T19:25:02.110Z,12.9
2023-10-20T19:30:01.339Z,12.94
2023-10-20T19:35:01.559Z,13.06
2023-10-20T19:40:01.754Z,13.04
2023-10-20T19:45:02.204Z,13.1
2023-10-20T19:50:02.088Z,13.07
2023-10-20T19:55:02.190Z,13.08
2023-10-20T20:00:02.273Z,13.16
2023-10-20T20:05:02.243Z,13.15
2023-10-20T20:10:01.555Z,13.16
2023-10-20T20:15:01.761Z,13.03
2023-10-20T20:20:02.218Z,13.04
2023-10-20T20:25:01.443Z,13
2023-10-20T20:30:01.814Z,13.06
2023-10-20T20:35:01.717Z,13.06
2023-10-20T20:40:02.006Z,13.08
2023-10-20T20:45:02.046Z,13.09
2023-10-20T20:50:02.057Z,13.08
2023-10-20T20:55:02.114Z,13.08
2023-10-20T21:00:01.358Z,13.05
2023-10-20T21:05:01.566Z,13.03
2023-10-20T21:10:01.893Z,12.97
2023-10-20T21:15:01.796Z,12.87
2023-10-20T21:20:01.998Z,12.75
2023-10-20T21:25:01.730Z,12.7
2023-10-20T21:30:02.317Z,12.75
2023-10-20T21:35:01.495Z,12.65
2023-10-20T21:40:01.819Z,12.63
2023-10-20T21:45:02.092Z,12.65
2023-10-20T21:50:01.813Z,12.72
2023-10-20T21:55:01.929Z,12.76
2023-10-20T22:00:01.911Z,12.86
2023-10-20T22:05:02.298Z,12.94
2023-10-20T22:10:02.230Z,13.04
2023-10-20T22:15:02.058Z,13.15
2023-10-20T22:20:02.192Z,13.1
2023-10-20T22:25:01.803Z,13.23
2023-10-20T22:30:02.104Z,13.26
2023-10-20T22:35:03.139Z,13.3
2023-10-20T22:40:01.825Z,13.21
2023-10-20T22:45:01.647Z,13.23
2023-10-20T22:50:01.346Z,13.27
2023-10-20T22:55:01.720Z,13.3
2023-10-20T23:00:01.841Z,13.32
2023-10-20T23:05:02.097Z,13.27
2023-10-20T23:10:01.315Z,13.37
2023-10-20T23:15:02.247Z,13.36
2023-10-20T23:20:01.290Z,13.32
2023-10-20T23:25:01.760Z,13.3
2023-10-20T23:30:01.729Z,13.3
2023-10-20T23:35:02.013Z,13.27
2023-10-20T23:40:01.743Z,13.31
2023-10-20T23:45:01.354Z,13.3
2023-10-20T23:50:01.743Z,13.25
2023-10-20T23:55:01.305Z,13.26
